sensor_id;sensor_type;location;lat;lon;timestamp;P1;durP1;ratioP1;P2;durP2;ratioP2
58768;SDS011;44536;47.474;19.056;2022-08-19T00:02:38;12.10;;;8.25;;
58768;SDS011;44536;47.474;19.056;2022-08-19T00:05:51;10.07;;;7.37;;
58768;SDS011;44536;47.474;19.056;2022-08-19T00:08:53;10.40;;;6.12;;
58768;SDS011;44536;47.474;19.056;2022-08-19T00:11:56;9.98;;;6.43;;
58768;SDS011;44536;47.474;19.056;2022-08-19T00:18:01;8.35;;;5.65;;
58768;SDS011;44536;47.474;19.056;2022-08-19T00:21:04;10.03;;;6.13;;
58768;SDS011;44536;47.474;19.056;2022-08-19T00:24:11;10.75;;;6.40;;
58768;SDS011;44536;47.474;19.056;2022-08-19T00:27:15;9.10;;;6.15;;
58768;SDS011;44536;47.474;19.056;2022-08-19T00:30:27;10.23;;;6.50;;
58768;SDS011;44536;47.474;19.056;2022-08-19T00:33:30;10.20;;;6.47;;
58768;SDS011;44536;47.474;19.056;2022-08-19T00:36:36;10.13;;;6.80;;
58768;SDS011;44536;47.474;19.056;2022-08-19T00:39:39;9.60;;;6.45;;
58768;SDS011;44536;47.474;19.056;2022-08-19T00:42:41;11.10;;;7.20;;
58768;SDS011;44536;47.474;19.056;2022-08-19T00:45:44;10.82;;;7.30;;
58768;SDS011;44536;47.474;19.056;2022-08-19T00:48:47;11.70;;;6.77;;
58768;SDS011;44536;47.474;19.056;2022-08-19T00:51:50;9.57;;;6.18;;
58768;SDS011;44536;47.474;19.056;2022-08-19T00:54:56;10.32;;;6.37;;
58768;SDS011;44536;47.474;19.056;2022-08-19T00:58:04;10.45;;;7.15;;
58768;SDS011;44536;47.474;19.056;2022-08-19T01:01:10;10.52;;;6.57;;
58768;SDS011;44536;47.474;19.056;2022-08-19T01:04:12;8.77;;;6.50;;
58768;SDS011;44536;47.474;19.056;2022-08-19T01:07:15;11.68;;;7.18;;
58768;SDS011;44536;47.474;19.056;2022-08-19T01:10:21;9.73;;;6.60;;
58768;SDS011;44536;47.474;19.056;2022-08-19T01:13:29;13.43;;;7.97;;
58768;SDS011;44536;47.474;19.056;2022-08-19T01:16:50;11.02;;;7.10;;
58768;SDS011;44536;47.474;19.056;2022-08-19T01:19:56;9.18;;;7.32;;
58768;SDS011;44536;47.474;19.056;2022-08-19T01:22:58;10.73;;;6.68;;
58768;SDS011;44536;47.474;19.056;2022-08-19T01:26:01;9.15;;;6.62;;
58768;SDS011;44536;47.474;19.056;2022-08-19T01:29:03;8.60;;;6.85;;
58768;SDS011;44536;47.474;19.056;2022-08-19T01:32:07;10.95;;;7.40;;
58768;SDS011;44536;47.474;19.056;2022-08-19T01:35:33;10.38;;;7.28;;
58768;SDS011;44536;47.474;19.056;2022-08-19T01:38:38;14.57;;;6.90;;
58768;SDS011;44536;47.474;19.056;2022-08-19T01:41:45;10.13;;;7.53;;
58768;SDS011;44536;47.474;19.056;2022-08-19T01:44:49;11.48;;;6.78;;
58768;SDS011;44536;47.474;19.056;2022-08-19T01:47:51;10.43;;;6.28;;
58768;SDS011;44536;47.474;19.056;2022-08-19T01:51:03;10.68;;;7.00;;
58768;SDS011;44536;47.474;19.056;2022-08-19T01:54:07;12.32;;;7.10;;
58768;SDS011;44536;47.474;19.056;2022-08-19T01:57:11;10.30;;;7.32;;
58768;SDS011;44536;47.474;19.056;2022-08-19T02:00:16;10.73;;;6.87;;
58768;SDS011;44536;47.474;19.056;2022-08-19T02:03:21;12.05;;;8.32;;
58768;SDS011;44536;47.474;19.056;2022-08-19T02:06:24;11.02;;;7.80;;
58768;SDS011;44536;47.474;19.056;2022-08-19T02:09:28;10.52;;;6.20;;
58768;SDS011;44536;47.474;19.056;2022-08-19T02:12:30;12.65;;;6.97;;
58768;SDS011;44536;47.474;19.056;2022-08-19T02:15:32;11.35;;;8.10;;
58768;SDS011;44536;47.474;19.056;2022-08-19T02:18:34;11.70;;;7.47;;
58768;SDS011;44536;47.474;19.056;2022-08-19T02:21:37;11.68;;;7.85;;
58768;SDS011;44536;47.474;19.056;2022-08-19T02:24:39;11.45;;;8.05;;
58768;SDS011;44536;47.474;19.056;2022-08-19T02:27:42;10.73;;;8.02;;
58768;SDS011;44536;47.474;19.056;2022-08-19T02:30:46;11.93;;;6.87;;
58768;SDS011;44536;47.474;19.056;2022-08-19T02:33:49;10.30;;;7.37;;
58768;SDS011;44536;47.474;19.056;2022-08-19T02:36:52;11.00;;;6.72;;
58768;SDS011;44536;47.474;19.056;2022-08-19T02:39:54;9.97;;;7.07;;
58768;SDS011;44536;47.474;19.056;2022-08-19T02:42:57;14.63;;;8.30;;
58768;SDS011;44536;47.474;19.056;2022-08-19T02:45:59;10.07;;;7.53;;
58768;SDS011;44536;47.474;19.056;2022-08-19T02:49:03;12.02;;;8.13;;
58768;SDS011;44536;47.474;19.056;2022-08-19T02:52:08;10.73;;;8.57;;
58768;SDS011;44536;47.474;19.056;2022-08-19T02:55:10;10.80;;;7.60;;
58768;SDS011;44536;47.474;19.056;2022-08-19T02:58:13;12.33;;;8.23;;
58768;SDS011;44536;47.474;19.056;2022-08-19T03:01:21;12.02;;;7.85;;
58768;SDS011;44536;47.474;19.056;2022-08-19T03:04:44;10.80;;;7.80;;
58768;SDS011;44536;47.474;19.056;2022-08-19T03:07:46;10.93;;;7.93;;
58768;SDS011;44536;47.474;19.056;2022-08-19T03:10:48;12.30;;;8.63;;
58768;SDS011;44536;47.474;19.056;2022-08-19T03:13:51;12.18;;;7.55;;
58768;SDS011;44536;47.474;19.056;2022-08-19T03:16:55;12.35;;;7.65;;
58768;SDS011;44536;47.474;19.056;2022-08-19T03:19:57;11.95;;;8.00;;
58768;SDS011;44536;47.474;19.056;2022-08-19T03:23:00;11.93;;;8.27;;
58768;SDS011;44536;47.474;19.056;2022-08-19T03:26:03;11.35;;;7.65;;
58768;SDS011;44536;47.474;19.056;2022-08-19T03:29:18;10.52;;;7.43;;
58768;SDS011;44536;47.474;19.056;2022-08-19T03:32:32;11.57;;;8.32;;
58768;SDS011;44536;47.474;19.056;2022-08-19T03:35:35;10.63;;;7.97;;
58768;SDS011;44536;47.474;19.056;2022-08-19T03:38:51;12.82;;;8.57;;
58768;SDS011;44536;47.474;19.056;2022-08-19T03:42:01;11.60;;;7.62;;
58768;SDS011;44536;47.474;19.056;2022-08-19T03:45:24;16.30;;;8.13;;
58768;SDS011;44536;47.474;19.056;2022-08-19T03:48:26;11.97;;;7.83;;
58768;SDS011;44536;47.474;19.056;2022-08-19T03:51:29;9.95;;;7.10;;
58768;SDS011;44536;47.474;19.056;2022-08-19T03:54:34;13.77;;;8.57;;
58768;SDS011;44536;47.474;19.056;2022-08-19T03:57:36;11.35;;;7.30;;
58768;SDS011;44536;47.474;19.056;2022-08-19T04:00:41;24.70;;;8.33;;
58768;SDS011;44536;47.474;19.056;2022-08-19T04:03:45;15.60;;;8.18;;
58768;SDS011;44536;47.474;19.056;2022-08-19T04:06:48;13.20;;;8.10;;
58768;SDS011;44536;47.474;19.056;2022-08-19T04:09:51;15.55;;;7.87;;
58768;SDS011;44536;47.474;19.056;2022-08-19T04:12:53;28.20;;;11.18;;
58768;SDS011;44536;47.474;19.056;2022-08-19T04:15:56;11.67;;;9.07;;
58768;SDS011;44536;47.474;19.056;2022-08-19T04:18:59;12.10;;;7.53;;
58768;SDS011;44536;47.474;19.056;2022-08-19T04:22:03;13.50;;;7.53;;
58768;SDS011;44536;47.474;19.056;2022-08-19T04:25:05;10.65;;;7.25;;
58768;SDS011;44536;47.474;19.056;2022-08-19T04:28:09;11.30;;;7.28;;
58768;SDS011;44536;47.474;19.056;2022-08-19T04:31:17;14.43;;;8.07;;
58768;SDS011;44536;47.474;19.056;2022-08-19T04:34:23;13.07;;;8.38;;
58768;SDS011;44536;47.474;19.056;2022-08-19T04:37:28;10.88;;;7.25;;
58768;SDS011;44536;47.474;19.056;2022-08-19T04:40:40;13.82;;;7.40;;
58768;SDS011;44536;47.474;19.056;2022-08-19T04:44:02;13.20;;;7.22;;
58768;SDS011;44536;47.474;19.056;2022-08-19T04:47:05;10.93;;;6.93;;
58768;SDS011;44536;47.474;19.056;2022-08-19T04:50:12;12.65;;;7.30;;
58768;SDS011;44536;47.474;19.056;2022-08-19T04:53:14;11.83;;;8.77;;
58768;SDS011;44536;47.474;19.056;2022-08-19T04:56:17;12.97;;;8.03;;
58768;SDS011;44536;47.474;19.056;2022-08-19T04:59:23;10.15;;;7.68;;
58768;SDS011;44536;47.474;19.056;2022-08-19T05:02:25;9.18;;;6.20;;
58768;SDS011;44536;47.474;19.056;2022-08-19T05:05:28;10.13;;;6.37;;
58768;SDS011;44536;47.474;19.056;2022-08-19T05:08:45;10.07;;;6.68;;
58768;SDS011;44536;47.474;19.056;2022-08-19T05:11:49;14.85;;;9.07;;
58768;SDS011;44536;47.474;19.056;2022-08-19T05:14:54;10.65;;;7.07;;
58768;SDS011;44536;47.474;19.056;2022-08-19T05:17:59;12.20;;;7.53;;
58768;SDS011;44536;47.474;19.056;2022-08-19T05:21:22;12.48;;;7.85;;
58768;SDS011;44536;47.474;19.056;2022-08-19T05:24:43;10.27;;;6.37;;
58768;SDS011;44536;47.474;19.056;2022-08-19T05:28:06;11.43;;;6.65;;
58768;SDS011;44536;47.474;19.056;2022-08-19T05:31:08;10.70;;;7.22;;
58768;SDS011;44536;47.474;19.056;2022-08-19T05:34:11;11.40;;;6.80;;
58768;SDS011;44536;47.474;19.056;2022-08-19T05:37:21;10.43;;;6.45;;
58768;SDS011;44536;47.474;19.056;2022-08-19T05:40:23;11.40;;;7.00;;
58768;SDS011;44536;47.474;19.056;2022-08-19T05:43:27;8.80;;;5.75;;
58768;SDS011;44536;47.474;19.056;2022-08-19T05:46:30;11.60;;;6.82;;
58768;SDS011;44536;47.474;19.056;2022-08-19T05:49:34;9.75;;;5.95;;
58768;SDS011;44536;47.474;19.056;2022-08-19T05:52:37;8.85;;;6.50;;
58768;SDS011;44536;47.474;19.056;2022-08-19T05:55:55;8.95;;;5.62;;
58768;SDS011;44536;47.474;19.056;2022-08-19T05:58:59;11.95;;;6.37;;
58768;SDS011;44536;47.474;19.056;2022-08-19T06:02:03;9.93;;;6.18;;
58768;SDS011;44536;47.474;19.056;2022-08-19T06:05:08;9.38;;;6.82;;
58768;SDS011;44536;47.474;19.056;2022-08-19T06:08:11;10.25;;;7.25;;
58768;SDS011;44536;47.474;19.056;2022-08-19T06:11:24;11.27;;;5.60;;
58768;SDS011;44536;47.474;19.056;2022-08-19T06:14:37;9.02;;;5.78;;
58768;SDS011;44536;47.474;19.056;2022-08-19T06:17:43;17.52;;;6.47;;
58768;SDS011;44536;47.474;19.056;2022-08-19T06:20:48;9.27;;;6.00;;
58768;SDS011;44536;47.474;19.056;2022-08-19T06:23:59;8.85;;;6.00;;
58768;SDS011;44536;47.474;19.056;2022-08-19T06:27:02;10.77;;;6.57;;
58768;SDS011;44536;47.474;19.056;2022-08-19T06:30:07;8.98;;;5.87;;
58768;SDS011;44536;47.474;19.056;2022-08-19T06:36:26;10.25;;;6.37;;
58768;SDS011;44536;47.474;19.056;2022-08-19T06:39:34;10.05;;;5.97;;
58768;SDS011;44536;47.474;19.056;2022-08-19T06:42:38;9.82;;;6.50;;
58768;SDS011;44536;47.474;19.056;2022-08-19T06:45:50;8.52;;;5.03;;
58768;SDS011;44536;47.474;19.056;2022-08-19T06:48:54;10.50;;;5.43;;
58768;SDS011;44536;47.474;19.056;2022-08-19T06:51:57;8.45;;;4.97;;
58768;SDS011;44536;47.474;19.056;2022-08-19T06:55:03;9.07;;;5.53;;
58768;SDS011;44536;47.474;19.056;2022-08-19T06:58:07;8.15;;;5.68;;
58768;SDS011;44536;47.474;19.056;2022-08-19T07:01:11;7.97;;;4.62;;
58768;SDS011;44536;47.474;19.056;2022-08-19T07:04:14;8.18;;;4.87;;
58768;SDS011;44536;47.474;19.056;2022-08-19T07:07:20;8.23;;;5.50;;
58768;SDS011;44536;47.474;19.056;2022-08-19T07:10:24;7.82;;;5.07;;
58768;SDS011;44536;47.474;19.056;2022-08-19T07:13:27;8.95;;;5.68;;
58768;SDS011;44536;47.474;19.056;2022-08-19T07:16:29;9.82;;;5.43;;
58768;SDS011;44536;47.474;19.056;2022-08-19T07:19:32;8.40;;;5.15;;
58768;SDS011;44536;47.474;19.056;2022-08-19T07:22:39;11.45;;;6.32;;
58768;SDS011;44536;47.474;19.056;2022-08-19T07:25:42;9.95;;;6.03;;
58768;SDS011;44536;47.474;19.056;2022-08-19T07:28:46;12.23;;;5.47;;
58768;SDS011;44536;47.474;19.056;2022-08-19T07:31:54;9.50;;;6.25;;
58768;SDS011;44536;47.474;19.056;2022-08-19T07:35:14;9.05;;;4.82;;
58768;SDS011;44536;47.474;19.056;2022-08-19T07:41:28;8.93;;;5.27;;
58768;SDS011;44536;47.474;19.056;2022-08-19T07:44:33;11.75;;;5.50;;
58768;SDS011;44536;47.474;19.056;2022-08-19T07:47:36;9.43;;;5.53;;
58768;SDS011;44536;47.474;19.056;2022-08-19T07:50:55;9.15;;;5.65;;
58768;SDS011;44536;47.474;19.056;2022-08-19T07:54:00;9.23;;;5.87;;
58768;SDS011;44536;47.474;19.056;2022-08-19T07:57:03;10.43;;;5.93;;
58768;SDS011;44536;47.474;19.056;2022-08-19T08:00:05;8.23;;;4.60;;
58768;SDS011;44536;47.474;19.056;2022-08-19T08:03:13;8.00;;;5.20;;
58768;SDS011;44536;47.474;19.056;2022-08-19T08:06:17;10.25;;;5.03;;
58768;SDS011;44536;47.474;19.056;2022-08-19T08:09:40;10.75;;;5.37;;
58768;SDS011;44536;47.474;19.056;2022-08-19T08:12:50;7.45;;;5.03;;
58768;SDS011;44536;47.474;19.056;2022-08-19T08:16:11;10.02;;;5.37;;
58768;SDS011;44536;47.474;19.056;2022-08-19T08:19:17;7.93;;;4.85;;
58768;SDS011;44536;47.474;19.056;2022-08-19T08:22:26;9.70;;;5.65;;
58768;SDS011;44536;47.474;19.056;2022-08-19T08:25:48;8.88;;;4.65;;
58768;SDS011;44536;47.474;19.056;2022-08-19T08:28:51;8.98;;;5.28;;
58768;SDS011;44536;47.474;19.056;2022-08-19T08:31:54;11.23;;;5.72;;
58768;SDS011;44536;47.474;19.056;2022-08-19T08:35:01;7.87;;;5.30;;
58768;SDS011;44536;47.474;19.056;2022-08-19T08:38:03;7.40;;;4.43;;
58768;SDS011;44536;47.474;19.056;2022-08-19T08:41:09;10.50;;;5.12;;
58768;SDS011;44536;47.474;19.056;2022-08-19T08:47:39;7.70;;;4.43;;
58768;SDS011;44536;47.474;19.056;2022-08-19T08:50:43;8.15;;;4.72;;
58768;SDS011;44536;47.474;19.056;2022-08-19T08:53:51;6.90;;;4.03;;
58768;SDS011;44536;47.474;19.056;2022-08-19T08:56:58;7.55;;;4.75;;
58768;SDS011;44536;47.474;19.056;2022-08-19T09:00:00;9.75;;;5.18;;
58768;SDS011;44536;47.474;19.056;2022-08-19T09:03:24;7.43;;;4.12;;
58768;SDS011;44536;47.474;19.056;2022-08-19T09:09:43;8.02;;;4.22;;
58768;SDS011;44536;47.474;19.056;2022-08-19T09:12:56;9.00;;;4.62;;
58768;SDS011;44536;47.474;19.056;2022-08-19T09:16:16;7.87;;;4.18;;
58768;SDS011;44536;47.474;19.056;2022-08-19T09:19:29;8.40;;;4.97;;
58768;SDS011;44536;47.474;19.056;2022-08-19T09:22:34;6.85;;;4.40;;
58768;SDS011;44536;47.474;19.056;2022-08-19T09:25:38;8.77;;;5.53;;
58768;SDS011;44536;47.474;19.056;2022-08-19T09:28:45;9.23;;;4.82;;
58768;SDS011;44536;47.474;19.056;2022-08-19T09:31:49;7.70;;;4.75;;
58768;SDS011;44536;47.474;19.056;2022-08-19T09:34:52;9.43;;;5.00;;
58768;SDS011;44536;47.474;19.056;2022-08-19T09:37:57;8.13;;;5.60;;
58768;SDS011;44536;47.474;19.056;2022-08-19T09:41:02;10.38;;;4.20;;
58768;SDS011;44536;47.474;19.056;2022-08-19T09:44:07;8.90;;;4.90;;
58768;SDS011;44536;47.474;19.056;2022-08-19T09:47:12;9.10;;;4.72;;
58768;SDS011;44536;47.474;19.056;2022-08-19T09:50:15;7.45;;;4.25;;
58768;SDS011;44536;47.474;19.056;2022-08-19T09:53:19;7.40;;;4.03;;
58768;SDS011;44536;47.474;19.056;2022-08-19T09:56:26;8.13;;;4.65;;
58768;SDS011;44536;47.474;19.056;2022-08-19T09:59:29;8.73;;;4.55;;
58768;SDS011;44536;47.474;19.056;2022-08-19T10:02:34;7.30;;;4.87;;
58768;SDS011;44536;47.474;19.056;2022-08-19T10:05:37;15.55;;;5.90;;
58768;SDS011;44536;47.474;19.056;2022-08-19T10:08:55;6.95;;;4.45;;
58768;SDS011;44536;47.474;19.056;2022-08-19T10:11:58;11.35;;;4.60;;
58768;SDS011;44536;47.474;19.056;2022-08-19T10:15:04;6.97;;;4.32;;
58768;SDS011;44536;47.474;19.056;2022-08-19T10:18:08;8.10;;;4.80;;
58768;SDS011;44536;47.474;19.056;2022-08-19T10:21:14;8.05;;;4.50;;
58768;SDS011;44536;47.474;19.056;2022-08-19T10:24:19;9.23;;;5.10;;
58768;SDS011;44536;47.474;19.056;2022-08-19T10:27:22;9.88;;;5.05;;
58768;SDS011;44536;47.474;19.056;2022-08-19T10:30:27;11.55;;;5.00;;
58768;SDS011;44536;47.474;19.056;2022-08-19T10:33:29;6.60;;;4.25;;
58768;SDS011;44536;47.474;19.056;2022-08-19T10:36:53;8.82;;;5.75;;
58768;SDS011;44536;47.474;19.056;2022-08-19T10:40:01;11.10;;;5.28;;
58768;SDS011;44536;47.474;19.056;2022-08-19T10:43:06;6.95;;;4.07;;
58768;SDS011;44536;47.474;19.056;2022-08-19T10:46:08;7.97;;;5.00;;
58768;SDS011;44536;47.474;19.056;2022-08-19T10:49:17;7.40;;;4.47;;
58768;SDS011;44536;47.474;19.056;2022-08-19T10:52:21;8.18;;;4.95;;
58768;SDS011;44536;47.474;19.056;2022-08-19T10:55:39;8.88;;;4.78;;
58768;SDS011;44536;47.474;19.056;2022-08-19T10:59:00;10.02;;;4.53;;
58768;SDS011;44536;47.474;19.056;2022-08-19T11:02:06;12.20;;;5.80;;
58768;SDS011;44536;47.474;19.056;2022-08-19T11:05:11;6.62;;;4.30;;
58768;SDS011;44536;47.474;19.056;2022-08-19T11:08:15;9.68;;;5.60;;
58768;SDS011;44536;47.474;19.056;2022-08-19T11:11:24;8.82;;;4.37;;
58768;SDS011;44536;47.474;19.056;2022-08-19T11:14:27;9.48;;;6.00;;
58768;SDS011;44536;47.474;19.056;2022-08-19T11:17:34;9.00;;;5.68;;
58768;SDS011;44536;47.474;19.056;2022-08-19T11:20:37;10.05;;;7.18;;
58768;SDS011;44536;47.474;19.056;2022-08-19T11:29:45;7.70;;;5.80;;
58768;SDS011;44536;47.474;19.056;2022-08-19T11:32:47;7.45;;;5.65;;
58768;SDS011;44536;47.474;19.056;2022-08-19T11:35:50;7.55;;;4.85;;
58768;SDS011;44536;47.474;19.056;2022-08-19T11:38:53;8.82;;;3.90;;
58768;SDS011;44536;47.474;19.056;2022-08-19T11:41:56;8.43;;;4.37;;
58768;SDS011;44536;47.474;19.056;2022-08-19T11:45:00;6.62;;;4.12;;
58768;SDS011;44536;47.474;19.056;2022-08-19T11:48:02;6.95;;;4.45;;
58768;SDS011;44536;47.474;19.056;2022-08-19T11:51:07;8.75;;;5.22;;
58768;SDS011;44536;47.474;19.056;2022-08-19T11:54:11;8.00;;;5.90;;
58768;SDS011;44536;47.474;19.056;2022-08-19T11:57:16;7.97;;;5.55;;
58768;SDS011;44536;47.474;19.056;2022-08-19T12:00:18;9.20;;;5.75;;
58768;SDS011;44536;47.474;19.056;2022-08-19T12:03:21;8.82;;;5.87;;
58768;SDS011;44536;47.474;19.056;2022-08-19T12:06:25;12.73;;;5.37;;
58768;SDS011;44536;47.474;19.056;2022-08-19T12:09:31;9.02;;;5.62;;
58768;SDS011;44536;47.474;19.056;2022-08-19T12:12:34;11.15;;;6.78;;
58768;SDS011;44536;47.474;19.056;2022-08-19T12:15:37;9.43;;;7.22;;
58768;SDS011;44536;47.474;19.056;2022-08-19T12:18:40;9.85;;;8.23;;
58768;SDS011;44536;47.474;19.056;2022-08-19T12:21:48;14.85;;;8.82;;
58768;SDS011;44536;47.474;19.056;2022-08-19T12:24:51;9.35;;;7.47;;
58768;SDS011;44536;47.474;19.056;2022-08-19T12:27:55;10.38;;;7.35;;
58768;SDS011;44536;47.474;19.056;2022-08-19T12:30:58;11.80;;;8.35;;
58768;SDS011;44536;47.474;19.056;2022-08-19T12:34:01;11.70;;;7.72;;
58768;SDS011;44536;47.474;19.056;2022-08-19T12:37:05;12.32;;;8.85;;
58768;SDS011;44536;47.474;19.056;2022-08-19T12:40:08;13.27;;;8.48;;
58768;SDS011;44536;47.474;19.056;2022-08-19T12:43:13;12.80;;;9.60;;
58768;SDS011;44536;47.474;19.056;2022-08-19T12:46:18;13.02;;;11.15;;
58768;SDS011;44536;47.474;19.056;2022-08-19T12:49:23;12.95;;;10.60;;
58768;SDS011;44536;47.474;19.056;2022-08-19T12:52:47;14.52;;;12.95;;
58768;SDS011;44536;47.474;19.056;2022-08-19T12:55:56;14.20;;;11.15;;
58768;SDS011;44536;47.474;19.056;2022-08-19T12:59:03;16.58;;;13.00;;
58768;SDS011;44536;47.474;19.056;2022-08-19T13:02:06;14.40;;;13.00;;
58768;SDS011;44536;47.474;19.056;2022-08-19T13:05:10;15.43;;;13.73;;
58768;SDS011;44536;47.474;19.056;2022-08-19T13:08:14;14.82;;;11.73;;
58768;SDS011;44536;47.474;19.056;2022-08-19T13:11:18;13.43;;;12.02;;
58768;SDS011;44536;47.474;19.056;2022-08-19T13:14:22;13.35;;;11.95;;
58768;SDS011;44536;47.474;19.056;2022-08-19T13:17:25;13.38;;;11.55;;
58768;SDS011;44536;47.474;19.056;2022-08-19T13:20:27;11.93;;;9.60;;
58768;SDS011;44536;47.474;19.056;2022-08-19T13:23:29;13.40;;;8.52;;
58768;SDS011;44536;47.474;19.056;2022-08-19T13:26:32;10.65;;;6.87;;
58768;SDS011;44536;47.474;19.056;2022-08-19T13:29:34;10.82;;;5.10;;
58768;SDS011;44536;47.474;19.056;2022-08-19T13:32:55;7.18;;;4.35;;
58768;SDS011;44536;47.474;19.056;2022-08-19T13:36:13;11.70;;;4.95;;
58768;SDS011;44536;47.474;19.056;2022-08-19T13:39:15;8.73;;;4.05;;
58768;SDS011;44536;47.474;19.056;2022-08-19T13:42:18;9.43;;;4.85;;
58768;SDS011;44536;47.474;19.056;2022-08-19T13:45:22;9.23;;;4.62;;
58768;SDS011;44536;47.474;19.056;2022-08-19T13:48:26;9.60;;;5.40;;
58768;SDS011;44536;47.474;19.056;2022-08-19T13:51:28;9.63;;;4.62;;
58768;SDS011;44536;47.474;19.056;2022-08-19T13:54:31;9.70;;;4.93;;
58768;SDS011;44536;47.474;19.056;2022-08-19T13:57:34;12.30;;;4.87;;
58768;SDS011;44536;47.474;19.056;2022-08-19T14:00:39;10.13;;;4.37;;
58768;SDS011;44536;47.474;19.056;2022-08-19T14:03:46;39.95;;;8.20;;
58768;SDS011;44536;47.474;19.056;2022-08-19T14:06:49;8.52;;;4.15;;
58768;SDS011;44536;47.474;19.056;2022-08-19T14:09:51;16.10;;;5.93;;
58768;SDS011;44536;47.474;19.056;2022-08-19T14:12:54;14.52;;;4.05;;
58768;SDS011;44536;47.474;19.056;2022-08-19T14:15:58;13.10;;;4.07;;
58768;SDS011;44536;47.474;19.056;2022-08-19T14:19:00;6.93;;;3.70;;
58768;SDS011;44536;47.474;19.056;2022-08-19T14:22:03;9.75;;;3.25;;
58768;SDS011;44536;47.474;19.056;2022-08-19T14:25:07;8.10;;;4.00;;
58768;SDS011;44536;47.474;19.056;2022-08-19T14:28:12;7.45;;;3.85;;
58768;SDS011;44536;47.474;19.056;2022-08-19T14:31:15;10.98;;;4.12;;
58768;SDS011;44536;47.474;19.056;2022-08-19T14:34:20;10.93;;;3.50;;
58768;SDS011;44536;47.474;19.056;2022-08-19T14:37:23;7.60;;;3.78;;
58768;SDS011;44536;47.474;19.056;2022-08-19T14:40:27;10.05;;;4.10;;
58768;SDS011;44536;47.474;19.056;2022-08-19T14:43:31;7.07;;;3.60;;
58768;SDS011;44536;47.474;19.056;2022-08-19T14:46:33;7.60;;;3.47;;
58768;SDS011;44536;47.474;19.056;2022-08-19T14:49:36;8.70;;;4.18;;
58768;SDS011;44536;47.474;19.056;2022-08-19T14:52:44;7.62;;;3.10;;
58768;SDS011;44536;47.474;19.056;2022-08-19T14:55:48;7.80;;;3.75;;
58768;SDS011;44536;47.474;19.056;2022-08-19T14:58:50;11.43;;;4.25;;
58768;SDS011;44536;47.474;19.056;2022-08-19T15:01:53;8.88;;;3.28;;
58768;SDS011;44536;47.474;19.056;2022-08-19T15:04:56;11.00;;;3.10;;
58768;SDS011;44536;47.474;19.056;2022-08-19T15:08:02;5.47;;;1.70;;
58768;SDS011;44536;47.474;19.056;2022-08-19T15:11:09;8.88;;;2.58;;
58768;SDS011;44536;47.474;19.056;2022-08-19T15:14:16;7.93;;;3.20;;
58768;SDS011;44536;47.474;19.056;2022-08-19T15:17:19;6.72;;;1.92;;
58768;SDS011;44536;47.474;19.056;2022-08-19T15:20:21;6.03;;;2.20;;
58768;SDS011;44536;47.474;19.056;2022-08-19T15:23:24;9.80;;;2.10;;
58768;SDS011;44536;47.474;19.056;2022-08-19T15:26:27;4.97;;;1.95;;
58768;SDS011;44536;47.474;19.056;2022-08-19T15:32:32;3.47;;;2.00;;
58768;SDS011;44536;47.474;19.056;2022-08-19T15:35:34;5.05;;;2.15;;
58768;SDS011;44536;47.474;19.056;2022-08-19T15:38:36;8.13;;;2.30;;
58768;SDS011;44536;47.474;19.056;2022-08-19T15:41:44;8.30;;;2.40;;
58768;SDS011;44536;47.474;19.056;2022-08-19T15:44:47;4.22;;;1.62;;
58768;SDS011;44536;47.474;19.056;2022-08-19T15:47:51;5.90;;;2.05;;
58768;SDS011;44536;47.474;19.056;2022-08-19T15:50:53;10.55;;;2.80;;
58768;SDS011;44536;47.474;19.056;2022-08-19T15:53:56;7.12;;;1.62;;
58768;SDS011;44536;47.474;19.056;2022-08-19T15:57:00;7.10;;;2.85;;
58768;SDS011;44536;47.474;19.056;2022-08-19T16:00:21;5.00;;;1.83;;
58768;SDS011;44536;47.474;19.056;2022-08-19T16:03:42;9.95;;;1.98;;
58768;SDS011;44536;47.474;19.056;2022-08-19T16:07:02;8.02;;;3.22;;
58768;SDS011;44536;47.474;19.056;2022-08-19T16:10:05;6.00;;;1.70;;
58768;SDS011;44536;47.474;19.056;2022-08-19T16:13:28;6.35;;;1.90;;
58768;SDS011;44536;47.474;19.056;2022-08-19T16:16:32;5.72;;;2.00;;
58768;SDS011;44536;47.474;19.056;2022-08-19T16:19:34;10.55;;;3.08;;
58768;SDS011;44536;47.474;19.056;2022-08-19T16:22:37;7.03;;;2.10;;
58768;SDS011;44536;47.474;19.056;2022-08-19T16:25:40;6.78;;;2.65;;
58768;SDS011;44536;47.474;19.056;2022-08-19T16:28:43;4.90;;;1.90;;
58768;SDS011;44536;47.474;19.056;2022-08-19T16:31:49;5.10;;;1.73;;
58768;SDS011;44536;47.474;19.056;2022-08-19T16:34:51;7.53;;;2.30;;
58768;SDS011;44536;47.474;19.056;2022-08-19T16:37:54;6.95;;;1.95;;
58768;SDS011;44536;47.474;19.056;2022-08-19T16:40:57;8.82;;;3.50;;
58768;SDS011;44536;47.474;19.056;2022-08-19T16:44:01;11.80;;;2.30;;
58768;SDS011;44536;47.474;19.056;2022-08-19T16:47:04;8.05;;;2.30;;
58768;SDS011;44536;47.474;19.056;2022-08-19T16:50:06;8.35;;;2.95;;
58768;SDS011;44536;47.474;19.056;2022-08-19T16:53:09;6.97;;;3.60;;
58768;SDS011;44536;47.474;19.056;2022-08-19T16:56:11;9.10;;;2.87;;
58768;SDS011;44536;47.474;19.056;2022-08-19T16:59:14;7.35;;;2.60;;
58768;SDS011;44536;47.474;19.056;2022-08-19T17:02:17;9.98;;;3.45;;
58768;SDS011;44536;47.474;19.056;2022-08-19T17:05:23;10.75;;;3.87;;
58768;SDS011;44536;47.474;19.056;2022-08-19T17:08:25;9.65;;;3.35;;
58768;SDS011;44536;47.474;19.056;2022-08-19T17:11:28;7.18;;;3.45;;
58768;SDS011;44536;47.474;19.056;2022-08-19T17:14:33;5.78;;;2.95;;
58768;SDS011;44536;47.474;19.056;2022-08-19T17:17:35;7.35;;;2.75;;
58768;SDS011;44536;47.474;19.056;2022-08-19T17:20:38;6.80;;;3.47;;
58768;SDS011;44536;47.474;19.056;2022-08-19T17:23:42;7.78;;;3.45;;
58768;SDS011;44536;47.474;19.056;2022-08-19T17:26:45;5.97;;;3.50;;
58768;SDS011;44536;47.474;19.056;2022-08-19T17:29:47;9.88;;;4.47;;
58768;SDS011;44536;47.474;19.056;2022-08-19T17:32:50;9.00;;;3.50;;
58768;SDS011;44536;47.474;19.056;2022-08-19T17:35:52;6.78;;;3.55;;
58768;SDS011;44536;47.474;19.056;2022-08-19T17:38:56;10.43;;;2.97;;
58768;SDS011;44536;47.474;19.056;2022-08-19T17:42:00;9.27;;;2.58;;
58768;SDS011;44536;47.474;19.056;2022-08-19T17:45:04;7.03;;;4.15;;
58768;SDS011;44536;47.474;19.056;2022-08-19T17:51:23;6.25;;;2.65;;
58768;SDS011;44536;47.474;19.056;2022-08-19T17:54:26;10.40;;;3.12;;
58768;SDS011;44536;47.474;19.056;2022-08-19T17:57:35;6.37;;;2.53;;
58768;SDS011;44536;47.474;19.056;2022-08-19T18:00:43;9.35;;;3.72;;
58768;SDS011;44536;47.474;19.056;2022-08-19T18:03:55;7.65;;;3.58;;
58768;SDS011;44536;47.474;19.056;2022-08-19T18:06:57;8.43;;;3.03;;
58768;SDS011;44536;47.474;19.056;2022-08-19T18:10:02;10.75;;;4.35;;
58768;SDS011;44536;47.474;19.056;2022-08-19T18:13:04;6.32;;;2.37;;
58768;SDS011;44536;47.474;19.056;2022-08-19T18:16:19;7.25;;;3.05;;
58768;SDS011;44536;47.474;19.056;2022-08-19T18:19:23;7.95;;;2.83;;
58768;SDS011;44536;47.474;19.056;2022-08-19T18:22:35;6.47;;;2.78;;
58768;SDS011;44536;47.474;19.056;2022-08-19T18:25:39;8.15;;;3.80;;
58768;SDS011;44536;47.474;19.056;2022-08-19T18:28:44;9.02;;;2.90;;
58768;SDS011;44536;47.474;19.056;2022-08-19T18:31:50;9.10;;;3.55;;
58768;SDS011;44536;47.474;19.056;2022-08-19T18:34:55;6.18;;;2.30;;
58768;SDS011;44536;47.474;19.056;2022-08-19T18:37:58;11.60;;;3.17;;
58768;SDS011;44536;47.474;19.056;2022-08-19T18:41:02;10.93;;;3.92;;
58768;SDS011;44536;47.474;19.056;2022-08-19T18:44:23;12.73;;;4.07;;